sensor_id;sensor_type;location;lat;lon;timestamp;P1;durP1;ratioP1;P2;durP2;ratioP2
69714;SDS011;56981;53.532;49.398;2024-01-10T00:02:18;0.57;;;0.57;;
69714;SDS011;56981;53.532;49.398;2024-01-10T00:04:45;2.78;;;0.77;;
69714;SDS011;56981;53.532;49.398;2024-01-10T00:07:11;1.27;;;0.55;;
69714;SDS011;56981;53.532;49.398;2024-01-10T00:09:37;0.55;;;0.55;;
69714;SDS011;56981;53.532;49.398;2024-01-10T00:12:03;0.40;;;0.40;;
69714;SDS011;56981;53.532;49.398;2024-01-10T00:14:29;1.75;;;0.70;;
69714;SDS011;56981;53.532;49.398;2024-01-10T00:16:55;1.20;;;0.65;;
69714;SDS011;56981;53.532;49.398;2024-01-10T00:19:21;0.85;;;0.20;;
69714;SDS011;56981;53.532;49.398;2024-01-10T00:21:48;0.32;;;0.32;;
69714;SDS011;56981;53.532;49.398;2024-01-10T00:24:15;1.35;;;0.22;;
69714;SDS011;56981;53.532;49.398;2024-01-10T00:26:41;0.65;;;0.30;;
69714;SDS011;56981;53.532;49.398;2024-01-10T00:29:08;1.80;;;0.50;;
69714;SDS011;56981;53.532;49.398;2024-01-10T00:31:34;0.43;;;0.43;;
69714;SDS011;56981;53.532;49.398;2024-01-10T00:34:00;0.73;;;0.70;;
69714;SDS011;56981;53.532;49.398;2024-01-10T00:36:27;0.57;;;0.43;;
69714;SDS011;56981;53.532;49.398;2024-01-10T00:38:53;0.75;;;0.35;;
69714;SDS011;56981;53.532;49.398;2024-01-10T00:41:19;2.40;;;0.70;;
69714;SDS011;56981;53.532;49.398;2024-01-10T00:43:45;1.33;;;0.77;;
69714;SDS011;56981;53.532;49.398;2024-01-10T00:46:12;0.95;;;0.60;;
69714;SDS011;56981;53.532;49.398;2024-01-10T00:48:38;1.83;;;0.80;;
69714;SDS011;56981;53.532;49.398;2024-01-10T00:51:04;1.08;;;0.35;;
69714;SDS011;56981;53.532;49.398;2024-01-10T00:53:34;1.10;;;1.08;;
69714;SDS011;56981;53.532;49.398;2024-01-10T00:56:01;2.25;;;1.05;;
69714;SDS011;56981;53.532;49.398;2024-01-10T00:58:27;2.05;;;1.35;;
69714;SDS011;56981;53.532;49.398;2024-01-10T01:00:53;3.40;;;0.95;;
69714;SDS011;56981;53.532;49.398;2024-01-10T01:03:20;1.08;;;0.85;;
69714;SDS011;56981;53.532;49.398;2024-01-10T01:05:46;2.20;;;1.40;;
69714;SDS011;56981;53.532;49.398;2024-01-10T01:08:12;2.63;;;0.82;;
69714;SDS011;56981;53.532;49.398;2024-01-10T01:10:39;0.90;;;0.63;;
69714;SDS011;56981;53.532;49.398;2024-01-10T01:13:05;1.58;;;0.93;;
69714;SDS011;56981;53.532;49.398;2024-01-10T01:15:31;2.47;;;1.00;;
69714;SDS011;56981;53.532;49.398;2024-01-10T01:17:58;3.80;;;0.40;;
69714;SDS011;56981;53.532;49.398;2024-01-10T01:20:24;1.45;;;0.75;;
69714;SDS011;56981;53.532;49.398;2024-01-10T01:22:50;3.30;;;1.02;;
69714;SDS011;56981;53.532;49.398;2024-01-10T01:25:16;0.77;;;0.77;;
69714;SDS011;56981;53.532;49.398;2024-01-10T01:27:43;0.55;;;0.32;;
69714;SDS011;56981;53.532;49.398;2024-01-10T01:30:09;0.68;;;0.60;;
69714;SDS011;56981;53.532;49.398;2024-01-10T01:32:37;1.10;;;0.80;;
69714;SDS011;56981;53.532;49.398;2024-01-10T01:35:03;1.27;;;0.55;;
69714;SDS011;56981;53.532;49.398;2024-01-10T01:37:30;0.73;;;0.70;;
69714;SDS011;56981;53.532;49.398;2024-01-10T01:39:56;0.88;;;0.43;;
69714;SDS011;56981;53.532;49.398;2024-01-10T01:42:23;2.47;;;1.15;;
69714;SDS011;56981;53.532;49.398;2024-01-10T01:44:49;1.67;;;0.98;;
69714;SDS011;56981;53.532;49.398;2024-01-10T01:47:15;4.43;;;1.60;;
69714;SDS011;56981;53.532;49.398;2024-01-10T01:49:42;1.98;;;0.90;;
69714;SDS011;56981;53.532;49.398;2024-01-10T01:52:09;1.67;;;0.65;;
69714;SDS011;56981;53.532;49.398;2024-01-10T01:54:36;0.77;;;0.65;;
69714;SDS011;56981;53.532;49.398;2024-01-10T01:57:02;1.08;;;0.80;;
69714;SDS011;56981;53.532;49.398;2024-01-10T01:59:29;1.70;;;0.73;;
69714;SDS011;56981;53.532;49.398;2024-01-10T02:01:55;1.17;;;0.60;;
69714;SDS011;56981;53.532;49.398;2024-01-10T02:04:26;1.35;;;1.15;;
69714;SDS011;56981;53.532;49.398;2024-01-10T02:06:53;3.30;;;0.90;;
69714;SDS011;56981;53.532;49.398;2024-01-10T02:09:20;1.60;;;1.20;;
69714;SDS011;56981;53.532;49.398;2024-01-10T02:11:46;0.40;;;0.40;;
69714;SDS011;56981;53.532;49.398;2024-01-10T02:14:13;4.70;;;2.33;;
69714;SDS011;56981;53.532;49.398;2024-01-10T02:16:40;0.70;;;0.68;;
69714;SDS011;56981;53.532;49.398;2024-01-10T02:19:19;3.38;;;0.98;;
69714;SDS011;56981;53.532;49.398;2024-01-10T02:21:48;1.90;;;1.23;;
69714;SDS011;56981;53.532;49.398;2024-01-10T02:24:14;1.45;;;0.90;;
69714;SDS011;56981;53.532;49.398;2024-01-10T02:26:41;0.35;;;0.35;;
69714;SDS011;56981;53.532;49.398;2024-01-10T02:29:07;7.63;;;1.45;;
69714;SDS011;56981;53.532;49.398;2024-01-10T02:31:38;2.40;;;0.93;;
69714;SDS011;56981;53.532;49.398;2024-01-10T02:34:05;3.50;;;0.73;;
69714;SDS011;56981;53.532;49.398;2024-01-10T02:36:31;4.72;;;1.48;;
69714;SDS011;56981;53.532;49.398;2024-01-10T02:38:57;0.77;;;0.50;;
69714;SDS011;56981;53.532;49.398;2024-01-10T02:41:23;3.08;;;1.13;;
69714;SDS011;56981;53.532;49.398;2024-01-10T02:43:50;1.05;;;0.95;;
69714;SDS011;56981;53.532;49.398;2024-01-10T02:46:16;0.28;;;0.28;;
69714;SDS011;56981;53.532;49.398;2024-01-10T02:48:42;1.98;;;0.52;;
69714;SDS011;56981;53.532;49.398;2024-01-10T02:51:12;0.52;;;0.30;;
69714;SDS011;56981;53.532;49.398;2024-01-10T02:53:38;1.55;;;0.73;;
69714;SDS011;56981;53.532;49.398;2024-01-10T02:56:05;1.80;;;0.73;;
69714;SDS011;56981;53.532;49.398;2024-01-10T02:58:32;1.02;;;0.60;;
69714;SDS011;56981;53.532;49.398;2024-01-10T03:00:58;0.20;;;0.20;;
69714;SDS011;56981;53.532;49.398;2024-01-10T03:03:24;1.15;;;0.63;;
69714;SDS011;56981;53.532;49.398;2024-01-10T03:05:51;0.28;;;0.25;;
69714;SDS011;56981;53.532;49.398;2024-01-10T03:08:17;1.65;;;0.70;;
69714;SDS011;56981;53.532;49.398;2024-01-10T03:10:44;0.43;;;0.40;;
69714;SDS011;56981;53.532;49.398;2024-01-10T03:13:10;1.23;;;0.93;;
69714;SDS011;56981;53.532;49.398;2024-01-10T03:15:36;0.47;;;0.47;;
69714;SDS011;56981;53.532;49.398;2024-01-10T03:18:02;0.45;;;0.45;;
69714;SDS011;56981;53.532;49.398;2024-01-10T03:20:28;1.20;;;0.80;;
69714;SDS011;56981;53.532;49.398;2024-01-10T03:22:55;0.57;;;0.57;;
69714;SDS011;56981;53.532;49.398;2024-01-10T03:25:21;1.30;;;0.60;;
69714;SDS011;56981;53.532;49.398;2024-01-10T03:27:47;0.50;;;0.25;;
69714;SDS011;56981;53.532;49.398;2024-01-10T03:30:13;1.25;;;0.43;;
69714;SDS011;56981;53.532;49.398;2024-01-10T03:32:40;2.33;;;1.38;;
69714;SDS011;56981;53.532;49.398;2024-01-10T03:35:06;1.27;;;0.80;;
69714;SDS011;56981;53.532;49.398;2024-01-10T03:37:32;0.20;;;0.20;;
69714;SDS011;56981;53.532;49.398;2024-01-10T03:39:59;1.25;;;1.15;;
69714;SDS011;56981;53.532;49.398;2024-01-10T03:42:25;0.80;;;0.80;;
69714;SDS011;56981;53.532;49.398;2024-01-10T03:44:51;0.40;;;0.38;;
69714;SDS011;56981;53.532;49.398;2024-01-10T03:47:17;2.28;;;0.50;;
69714;SDS011;56981;53.532;49.398;2024-01-10T03:49:43;0.70;;;0.70;;
69714;SDS011;56981;53.532;49.398;2024-01-10T03:52:09;0.30;;;0.30;;
69714;SDS011;56981;53.532;49.398;2024-01-10T03:54:35;2.10;;;0.77;;
69714;SDS011;56981;53.532;49.398;2024-01-10T03:57:01;0.60;;;0.60;;
69714;SDS011;56981;53.532;49.398;2024-01-10T03:59:27;0.93;;;0.93;;
69714;SDS011;56981;53.532;49.398;2024-01-10T04:01:53;2.70;;;1.00;;
69714;SDS011;56981;53.532;49.398;2024-01-10T04:04:19;0.20;;;0.20;;
69714;SDS011;56981;53.532;49.398;2024-01-10T04:06:45;0.98;;;0.75;;
69714;SDS011;56981;53.532;49.398;2024-01-10T04:09:11;0.22;;;0.22;;
69714;SDS011;56981;53.532;49.398;2024-01-10T04:11:38;2.85;;;0.98;;
69714;SDS011;56981;53.532;49.398;2024-01-10T04:14:04;1.23;;;0.38;;
69714;SDS011;56981;53.532;49.398;2024-01-10T04:16:31;0.68;;;0.30;;
69714;SDS011;56981;53.532;49.398;2024-01-10T04:18:57;0.28;;;0.28;;
69714;SDS011;56981;53.532;49.398;2024-01-10T04:21:23;0.68;;;0.68;;
69714;SDS011;56981;53.532;49.398;2024-01-10T04:23:49;5.35;;;0.82;;
69714;SDS011;56981;53.532;49.398;2024-01-10T04:26:17;0.32;;;0.32;;
69714;SDS011;56981;53.532;49.398;2024-01-10T04:28:43;1.30;;;1.20;;
69714;SDS011;56981;53.532;49.398;2024-01-10T04:31:09;0.93;;;0.35;;
69714;SDS011;56981;53.532;49.398;2024-01-10T04:33:35;0.20;;;0.20;;
69714;SDS011;56981;53.532;49.398;2024-01-10T04:36:02;1.98;;;0.75;;
69714;SDS011;56981;53.532;49.398;2024-01-10T04:38:28;0.32;;;0.32;;
69714;SDS011;56981;53.532;49.398;2024-01-10T04:40:54;4.97;;;1.10;;
69714;SDS011;56981;53.532;49.398;2024-01-10T04:43:20;4.50;;;1.00;;
69714;SDS011;56981;53.532;49.398;2024-01-10T04:45:47;5.63;;;0.57;;
69714;SDS011;56981;53.532;49.398;2024-01-10T04:48:13;1.00;;;0.98;;
69714;SDS011;56981;53.532;49.398;2024-01-10T04:50:39;2.95;;;0.57;;
69714;SDS011;56981;53.532;49.398;2024-01-10T04:53:05;0.00;;;0.00;;
69714;SDS011;56981;53.532;49.398;2024-01-10T04:55:31;3.00;;;1.30;;
69714;SDS011;56981;53.532;49.398;2024-01-10T04:57:57;1.95;;;1.05;;
69714;SDS011;56981;53.532;49.398;2024-01-10T05:00:23;2.15;;;1.13;;
69714;SDS011;56981;53.532;49.398;2024-01-10T05:02:49;0.43;;;0.43;;
69714;SDS011;56981;53.532;49.398;2024-01-10T05:05:16;1.98;;;1.13;;
69714;SDS011;56981;53.532;49.398;2024-01-10T05:07:49;1.70;;;1.50;;
69714;SDS011;56981;53.532;49.398;2024-01-10T05:10:16;0.30;;;0.25;;
69714;SDS011;56981;53.532;49.398;2024-01-10T05:12:42;0.60;;;0.60;;
69714;SDS011;56981;53.532;49.398;2024-01-10T05:15:08;0.95;;;0.47;;
69714;SDS011;56981;53.532;49.398;2024-01-10T05:17:34;1.30;;;0.70;;
69714;SDS011;56981;53.532;49.398;2024-01-10T05:20:00;1.50;;;0.30;;
69714;SDS011;56981;53.532;49.398;2024-01-10T05:22:26;1.88;;;1.77;;
69714;SDS011;56981;53.532;49.398;2024-01-10T05:24:52;1.17;;;0.63;;
69714;SDS011;56981;53.532;49.398;2024-01-10T05:27:19;0.45;;;0.45;;
69714;SDS011;56981;53.532;49.398;2024-01-10T05:29:45;1.35;;;1.08;;
69714;SDS011;56981;53.532;49.398;2024-01-10T05:32:13;3.45;;;0.52;;
69714;SDS011;56981;53.532;49.398;2024-01-10T05:34:39;1.75;;;0.82;;
69714;SDS011;56981;53.532;49.398;2024-01-10T05:37:05;0.08;;;0.08;;
69714;SDS011;56981;53.532;49.398;2024-01-10T05:39:31;1.00;;;0.63;;
69714;SDS011;56981;53.532;49.398;2024-01-10T05:44:49;1.65;;;0.88;;
69714;SDS011;56981;53.532;49.398;2024-01-10T05:47:15;2.97;;;0.93;;
69714;SDS011;56981;53.532;49.398;2024-01-10T05:49:41;1.52;;;1.00;;
69714;SDS011;56981;53.532;49.398;2024-01-10T05:52:08;0.10;;;0.10;;
69714;SDS011;56981;53.532;49.398;2024-01-10T05:54:34;0.65;;;0.50;;
69714;SDS011;56981;53.532;49.398;2024-01-10T05:57:00;1.27;;;0.50;;
69714;SDS011;56981;53.532;49.398;2024-01-10T05:59:28;2.53;;;0.63;;
69714;SDS011;56981;53.532;49.398;2024-01-10T06:01:56;0.30;;;0.30;;
69714;SDS011;56981;53.532;49.398;2024-01-10T06:04:24;0.75;;;0.47;;
69714;SDS011;56981;53.532;49.398;2024-01-10T06:06:50;2.55;;;1.00;;
69714;SDS011;56981;53.532;49.398;2024-01-10T06:09:16;2.10;;;0.90;;
69714;SDS011;56981;53.532;49.398;2024-01-10T06:11:47;1.42;;;0.75;;
69714;SDS011;56981;53.532;49.398;2024-01-10T06:14:13;0.80;;;0.80;;
69714;SDS011;56981;53.532;49.398;2024-01-10T06:16:39;4.68;;;0.98;;
69714;SDS011;56981;53.532;49.398;2024-01-10T06:19:05;0.32;;;0.22;;
69714;SDS011;56981;53.532;49.398;2024-01-10T06:21:31;1.45;;;0.90;;
69714;SDS011;56981;53.532;49.398;2024-01-10T06:23:59;0.82;;;0.57;;
69714;SDS011;56981;53.532;49.398;2024-01-10T06:26:25;1.27;;;1.02;;
69714;SDS011;56981;53.532;49.398;2024-01-10T06:28:51;2.65;;;1.05;;
69714;SDS011;56981;53.532;49.398;2024-01-10T06:31:17;0.60;;;0.60;;
69714;SDS011;56981;53.532;49.398;2024-01-10T06:33:44;1.98;;;1.15;;
69714;SDS011;56981;53.532;49.398;2024-01-10T06:36:10;3.20;;;1.02;;
69714;SDS011;56981;53.532;49.398;2024-01-10T06:38:39;3.42;;;1.27;;
69714;SDS011;56981;53.532;49.398;2024-01-10T06:41:09;2.95;;;1.00;;
69714;SDS011;56981;53.532;49.398;2024-01-10T06:43:36;1.45;;;0.88;;
69714;SDS011;56981;53.532;49.398;2024-01-10T06:46:03;1.13;;;1.02;;
69714;SDS011;56981;53.532;49.398;2024-01-10T06:48:29;1.63;;;1.50;;
69714;SDS011;56981;53.532;49.398;2024-01-10T06:50:55;1.58;;;1.48;;
69714;SDS011;56981;53.532;49.398;2024-01-10T06:53:21;2.10;;;1.60;;
69714;SDS011;56981;53.532;49.398;2024-01-10T06:55:48;2.03;;;0.55;;
69714;SDS011;56981;53.532;49.398;2024-01-10T06:58:14;2.70;;;1.33;;
69714;SDS011;56981;53.532;49.398;2024-01-10T07:00:40;3.17;;;1.65;;
69714;SDS011;56981;53.532;49.398;2024-01-10T07:03:07;7.47;;;1.27;;
69714;SDS011;56981;53.532;49.398;2024-01-10T07:05:33;1.55;;;0.93;;
69714;SDS011;56981;53.532;49.398;2024-01-10T07:08:02;2.03;;;1.10;;
69714;SDS011;56981;53.532;49.398;2024-01-10T07:10:29;3.92;;;1.33;;
69714;SDS011;56981;53.532;49.398;2024-01-10T07:12:55;2.85;;;1.38;;
69714;SDS011;56981;53.532;49.398;2024-01-10T07:15:21;1.33;;;0.80;;
69714;SDS011;56981;53.532;49.398;2024-01-10T07:17:48;3.60;;;1.23;;
69714;SDS011;56981;53.532;49.398;2024-01-10T07:20:14;3.65;;;1.40;;
69714;SDS011;56981;53.532;49.398;2024-01-10T07:22:41;3.10;;;1.77;;
69714;SDS011;56981;53.532;49.398;2024-01-10T07:25:10;0.13;;;0.10;;
69714;SDS011;56981;53.532;49.398;2024-01-10T07:27:40;0.80;;;0.57;;
69714;SDS011;56981;53.532;49.398;2024-01-10T07:30:07;1.65;;;0.82;;
69714;SDS011;56981;53.532;49.398;2024-01-10T07:32:42;1.10;;;1.00;;
69714;SDS011;56981;53.532;49.398;2024-01-10T07:35:09;4.40;;;2.40;;
69714;SDS011;56981;53.532;49.398;2024-01-10T07:37:37;4.15;;;1.23;;
69714;SDS011;56981;53.532;49.398;2024-01-10T07:40:07;2.90;;;1.40;;
69714;SDS011;56981;53.532;49.398;2024-01-10T07:42:34;4.00;;;1.63;;
69714;SDS011;56981;53.532;49.398;2024-01-10T07:45:01;2.22;;;1.45;;
69714;SDS011;56981;53.532;49.398;2024-01-10T07:47:33;2.85;;;2.10;;
69714;SDS011;56981;53.532;49.398;2024-01-10T07:50:04;3.28;;;1.65;;
69714;SDS011;56981;53.532;49.398;2024-01-10T07:52:34;4.53;;;2.45;;
69714;SDS011;56981;53.532;49.398;2024-01-10T07:55:00;8.55;;;2.72;;
69714;SDS011;56981;53.532;49.398;2024-01-10T07:57:27;5.75;;;3.55;;
69714;SDS011;56981;53.532;49.398;2024-01-10T07:59:53;4.88;;;2.95;;
69714;SDS011;56981;53.532;49.398;2024-01-10T08:02:19;7.78;;;3.30;;
69714;SDS011;56981;53.532;49.398;2024-01-10T08:04:45;10.50;;;4.28;;
69714;SDS011;56981;53.532;49.398;2024-01-10T08:07:11;4.68;;;3.10;;
69714;SDS011;56981;53.532;49.398;2024-01-10T08:09:39;10.15;;;3.70;;
69714;SDS011;56981;53.532;49.398;2024-01-10T08:12:05;11.43;;;5.47;;
69714;SDS011;56981;53.532;49.398;2024-01-10T08:14:32;13.13;;;4.45;;
69714;SDS011;56981;53.532;49.398;2024-01-10T08:17:03;9.43;;;4.80;;
69714;SDS011;56981;53.532;49.398;2024-01-10T08:19:30;8.60;;;3.85;;
69714;SDS011;56981;53.532;49.398;2024-01-10T08:21:56;7.10;;;4.13;;
69714;SDS011;56981;53.532;49.398;2024-01-10T08:24:22;18.92;;;8.63;;
69714;SDS011;56981;53.532;49.398;2024-01-10T08:26:48;7.13;;;4.00;;
69714;SDS011;56981;53.532;49.398;2024-01-10T08:29:18;10.57;;;5.35;;
69714;SDS011;56981;53.532;49.398;2024-01-10T08:31:44;5.63;;;3.83;;
69714;SDS011;56981;53.532;49.398;2024-01-10T08:34:11;5.57;;;3.35;;
69714;SDS011;56981;53.532;49.398;2024-01-10T08:36:37;6.75;;;3.47;;
69714;SDS011;56981;53.532;49.398;2024-01-10T08:39:03;4.32;;;2.90;;
69714;SDS011;56981;53.532;49.398;2024-01-10T08:41:30;2.05;;;1.60;;
69714;SDS011;56981;53.532;49.398;2024-01-10T08:44:05;3.67;;;2.38;;
69714;SDS011;56981;53.532;49.398;2024-01-10T08:46:31;4.22;;;1.55;;
69714;SDS011;56981;53.532;49.398;2024-01-10T08:48:57;2.90;;;2.17;;
69714;SDS011;56981;53.532;49.398;2024-01-10T08:51:23;3.28;;;1.00;;
69714;SDS011;56981;53.532;49.398;2024-01-10T08:53:52;2.05;;;1.33;;
69714;SDS011;56981;53.532;49.398;2024-01-10T08:56:18;8.13;;;1.85;;
69714;SDS011;56981;53.532;49.398;2024-01-10T08:58:45;5.55;;;2.22;;
69714;SDS011;56981;53.532;49.398;2024-01-10T09:01:12;1.05;;;0.75;;
69714;SDS011;56981;53.532;49.398;2024-01-10T09:03:38;2.05;;;1.75;;
69714;SDS011;56981;53.532;49.398;2024-01-10T09:06:04;3.97;;;1.90;;
69714;SDS011;56981;53.532;49.398;2024-01-10T09:08:33;4.88;;;2.80;;
69714;SDS011;56981;53.532;49.398;2024-01-10T09:11:00;2.78;;;2.35;;
69714;SDS011;56981;53.532;49.398;2024-01-10T09:13:26;1.27;;;0.98;;
69714;SDS011;56981;53.532;49.398;2024-01-10T09:15:52;2.90;;;1.85;;
69714;SDS011;56981;53.532;49.398;2024-01-10T09:18:18;2.47;;;1.70;;
69714;SDS011;56981;53.532;49.398;2024-01-10T09:20:44;3.55;;;2.83;;
69714;SDS011;56981;53.532;49.398;2024-01-10T09:23:10;2.90;;;1.88;;
69714;SDS011;56981;53.532;49.398;2024-01-10T09:25:36;2.40;;;1.63;;
69714;SDS011;56981;53.532;49.398;2024-01-10T09:28:04;3.72;;;1.88;;
69714;SDS011;56981;53.532;49.398;2024-01-10T09:30:30;1.23;;;1.15;;
69714;SDS011;56981;53.532;49.398;2024-01-10T09:32:56;4.18;;;1.73;;
69714;SDS011;56981;53.532;49.398;2024-01-10T09:35:23;1.52;;;1.42;;
69714;SDS011;56981;53.532;49.398;2024-01-10T09:37:49;3.40;;;1.83;;
69714;SDS011;56981;53.532;49.398;2024-01-10T09:40:15;3.20;;;1.60;;
69714;SDS011;56981;53.532;49.398;2024-01-10T09:42:45;5.55;;;2.15;;
69714;SDS011;56981;53.532;49.398;2024-01-10T09:45:15;1.80;;;1.48;;
69714;SDS011;56981;53.532;49.398;2024-01-10T09:47:43;1.75;;;1.13;;
69714;SDS011;56981;53.532;49.398;2024-01-10T09:50:13;1.95;;;1.33;;
69714;SDS011;56981;53.532;49.398;2024-01-10T09:52:48;1.67;;;0.98;;
69714;SDS011;56981;53.532;49.398;2024-01-10T09:55:17;2.65;;;1.40;;
69714;SDS011;56981;53.532;49.398;2024-01-10T09:57:47;2.00;;;1.20;;
69714;SDS011;56981;53.532;49.398;2024-01-10T10:00:14;3.15;;;1.73;;
69714;SDS011;56981;53.532;49.398;2024-01-10T10:02:42;3.17;;;1.40;;
69714;SDS011;56981;53.532;49.398;2024-01-10T10:05:15;3.95;;;2.35;;
69714;SDS011;56981;53.532;49.398;2024-01-10T10:07:47;11.52;;;4.15;;
69714;SDS011;56981;53.532;49.398;2024-01-10T10:10:15;2.78;;;1.30;;
69714;SDS011;56981;53.532;49.398;2024-01-10T10:12:49;5.90;;;2.08;;
69714;SDS011;56981;53.532;49.398;2024-01-10T10:15:19;5.93;;;2.88;;
69714;SDS011;56981;53.532;49.398;2024-01-10T10:17:52;3.83;;;1.25;;
69714;SDS011;56981;53.532;49.398;2024-01-10T10:23:01;1.27;;;1.05;;
69714;SDS011;56981;53.532;49.398;2024-01-10T10:25:53;6.97;;;2.45;;
69714;SDS011;56981;53.532;49.398;2024-01-10T10:28:20;0.88;;;0.88;;
69714;SDS011;56981;53.532;49.398;2024-01-10T10:30:46;4.28;;;1.98;;
69714;SDS011;56981;53.532;49.398;2024-01-10T10:33:12;1.90;;;0.90;;
69714;SDS011;56981;53.532;49.398;2024-01-10T10:35:38;1.15;;;1.05;;
69714;SDS011;56981;53.532;49.398;2024-01-10T10:38:07;0.70;;;0.70;;
69714;SDS011;56981;53.532;49.398;2024-01-10T10:40:34;6.70;;;2.22;;
69714;SDS011;56981;53.532;49.398;2024-01-10T10:43:01;1.23;;;1.02;;
69714;SDS011;56981;53.532;49.398;2024-01-10T10:45:30;2.95;;;1.98;;
69714;SDS011;56981;53.532;49.398;2024-01-10T10:48:00;0.82;;;0.52;;
69714;SDS011;56981;53.532;49.398;2024-01-10T10:50:28;1.95;;;0.90;;
69714;SDS011;56981;53.532;49.398;2024-01-10T10:52:59;3.50;;;1.40;;
69714;SDS011;56981;53.532;49.398;2024-01-10T10:55:28;2.80;;;1.85;;
69714;SDS011;56981;53.532;49.398;2024-01-10T10:57:55;1.17;;;0.65;;
69714;SDS011;56981;53.532;49.398;2024-01-10T11:00:24;1.98;;;1.55;;
69714;SDS011;56981;53.532;49.398;2024-01-10T11:02:53;2.83;;;1.85;;
69714;SDS011;56981;53.532;49.398;2024-01-10T11:05:20;2.45;;;1.20;;
69714;SDS011;56981;53.532;49.398;2024-01-10T11:07:47;0.98;;;0.57;;
69714;SDS011;56981;53.532;49.398;2024-01-10T11:10:32;1.38;;;1.27;;
69714;SDS011;56981;53.532;49.398;2024-01-10T11:13:13;1.98;;;1.48;;
69714;SDS011;56981;53.532;49.398;2024-01-10T11:24:48;1.77;;;1.30;;
69714;SDS011;56981;53.532;49.398;2024-01-10T11:27:14;7.00;;;1.85;;
69714;SDS011;56981;53.532;49.398;2024-01-10T11:29:41;2.08;;;1.30;;
69714;SDS011;56981;53.532;49.398;2024-01-10T11:32:15;2.10;;;0.80;;
69714;SDS011;56981;53.532;49.398;2024-01-10T11:34:55;0.75;;;0.70;;
69714;SDS011;56981;53.532;49.398;2024-01-10T11:37:43;1.15;;;0.50;;
69714;SDS011;56981;53.532;49.398;2024-01-10T11:40:10;0.00;;;0.00;;
69714;SDS011;56981;53.532;49.398;2024-01-10T11:42:49;1.83;;;1.08;;
69714;SDS011;56981;53.532;49.398;2024-01-10T11:50:52;1.83;;;1.25;;
69714;SDS011;56981;53.532;49.398;2024-01-10T11:53:41;3.78;;;2.13;;
69714;SDS011;56981;53.532;49.398;2024-01-10T11:56:16;1.00;;;0.63;;
69714;SDS011;56981;53.532;49.398;2024-01-10T11:59:00;3.28;;;1.40;;
69714;SDS011;56981;53.532;49.398;2024-01-10T12:01:36;4.13;;;2.22;;
69714;SDS011;56981;53.532;49.398;2024-01-10T12:04:04;2.15;;;1.20;;
69714;SDS011;56981;53.532;49.398;2024-01-10T12:06:36;2.55;;;1.27;;
69714;SDS011;56981;53.532;49.398;2024-01-10T12:09:03;1.73;;;1.42;;
69714;SDS011;56981;53.532;49.398;2024-01-10T12:11:38;3.08;;;1.58;;
69714;SDS011;56981;53.532;49.398;2024-01-10T12:14:09;3.67;;;1.90;;
69714;SDS011;56981;53.532;49.398;2024-01-10T12:16:35;5.30;;;2.65;;
69714;SDS011;56981;53.532;49.398;2024-01-10T12:19:02;3.22;;;2.13;;
69714;SDS011;56981;53.532;49.398;2024-01-10T12:21:28;2.22;;;1.17;;
69714;SDS011;56981;53.532;49.398;2024-01-10T12:23:55;1.73;;;1.30;;
69714;SDS011;56981;53.532;49.398;2024-01-10T12:26:21;3.50;;;1.70;;
69714;SDS011;56981;53.532;49.398;2024-01-10T12:28:54;2.55;;;2.00;;
69714;SDS011;56981;53.532;49.398;2024-01-10T12:31:27;3.78;;;1.45;;
69714;SDS011;56981;53.532;49.398;2024-01-10T12:33:58;1.20;;;0.63;;
69714;SDS011;56981;53.532;49.398;2024-01-10T12:36:24;4.20;;;1.75;;
69714;SDS011;56981;53.532;49.398;2024-01-10T12:38:51;2.50;;;1.42;;
69714;SDS011;56981;53.532;49.398;2024-01-10T12:41:18;2.83;;;1.48;;
69714;SDS011;56981;53.532;49.398;2024-01-10T12:43:48;3.20;;;1.73;;
69714;SDS011;56981;53.532;49.398;2024-01-10T12:46:17;1.48;;;0.65;;
69714;SDS011;56981;53.532;49.398;2024-01-10T12:48:43;14.40;;;4.68;;
69714;SDS011;56981;53.532;49.398;2024-01-10T12:51:13;0.73;;;0.60;;
69714;SDS011;56981;53.532;49.398;2024-01-10T12:53:39;2.08;;;1.23;;
69714;SDS011;56981;53.532;49.398;2024-01-10T12:56:07;1.52;;;0.98;;
69714;SDS011;56981;53.532;49.398;2024-01-10T12:58:35;2.55;;;1.38;;
69714;SDS011;56981;53.532;49.398;2024-01-10T13:01:04;2.13;;;1.13;;
69714;SDS011;56981;53.532;49.398;2024-01-10T13:03:30;1.25;;;0.75;;
69714;SDS011;56981;53.532;49.398;2024-01-10T13:05:57;4.18;;;2.33;;
69714;SDS011;56981;53.532;49.398;2024-01-10T13:08:24;2.67;;;0.90;;
69714;SDS011;56981;53.532;49.398;2024-01-10T13:10:50;6.35;;;1.55;;
69714;SDS011;56981;53.532;49.398;2024-01-10T13:13:16;1.90;;;1.35;;
69714;SDS011;56981;53.532;49.398;2024-01-10T13:15:43;2.92;;;1.45;;
69714;SDS011;56981;53.532;49.398;2024-01-10T13:18:11;1.02;;;0.77;;
69714;SDS011;56981;53.532;49.398;2024-01-10T13:20:41;4.30;;;1.60;;
69714;SDS011;56981;53.532;49.398;2024-01-10T13:23:08;3.22;;;1.98;;
69714;SDS011;56981;53.532;49.398;2024-01-10T13:25:35;1.65;;;0.60;;
69714;SDS011;56981;53.532;49.398;2024-01-10T13:28:05;3.15;;;1.88;;
69714;SDS011;56981;53.532;49.398;2024-01-10T13:30:31;1.50;;;1.20;;
69714;SDS011;56981;53.532;49.398;2024-01-10T13:32:58;1.63;;;1.15;;
69714;SDS011;56981;53.532;49.398;2024-01-10T13:35:26;2.88;;;1.25;;
69714;SDS011;56981;53.532;49.398;2024-01-10T13:37:52;1.17;;;0.77;;
69714;SDS011;56981;53.532;49.398;2024-01-10T13:40:18;1.13;;;0.63;;
69714;SDS011;56981;53.532;49.398;2024-01-10T13:42:49;1.85;;;1.10;;
69714;SDS011;56981;53.532;49.398;2024-01-10T13:45:15;0.20;;;0.20;;
69714;SDS011;56981;53.532;49.398;2024-01-10T13:47:42;0.63;;;0.60;;
69714;SDS011;56981;53.532;49.398;2024-01-10T13:50:09;1.20;;;0.95;;
69714;SDS011;56981;53.532;49.398;2024-01-10T13:52:35;1.48;;;0.90;;
69714;SDS011;56981;53.532;49.398;2024-01-10T13:55:02;0.85;;;0.85;;
69714;SDS011;56981;53.532;49.398;2024-01-10T13:57:32;4.20;;;1.30;;
69714;SDS011;56981;53.532;49.398;2024-01-10T13:59:59;4.38;;;1.02;;
69714;SDS011;56981;53.532;49.398;2024-01-10T14:02:26;4.22;;;1.73;;
69714;SDS011;56981;53.532;49.398;2024-01-10T14:04:52;3.05;;;1.30;;
69714;SDS011;56981;53.532;49.398;2024-01-10T14:07:24;1.02;;;0.63;;
69714;SDS011;56981;53.532;49.398;2024-01-10T14:09:51;1.33;;;0.77;;
69714;SDS011;56981;53.532;49.398;2024-01-10T14:12:20;2.05;;;1.23;;
69714;SDS011;56981;53.532;49.398;2024-01-10T14:14:46;1.33;;;0.95;;
69714;SDS011;56981;53.532;49.398;2024-01-10T14:17:12;1.38;;;0.75;;
69714;SDS011;56981;53.532;49.398;2024-01-10T14:19:38;1.30;;;1.20;;
69714;SDS011;56981;53.532;49.398;2024-01-10T14:22:04;0.55;;;0.55;;
69714;SDS011;56981;53.532;49.398;2024-01-10T14:24:30;2.92;;;1.10;;
69714;SDS011;56981;53.532;49.398;2024-01-10T14:26:58;4.68;;;2.15;;
69714;SDS011;56981;53.532;49.398;2024-01-10T14:29:24;0.63;;;0.63;;
69714;SDS011;56981;53.532;49.398;2024-01-10T14:31:51;2.53;;;1.80;;
69714;SDS011;56981;53.532;49.398;2024-01-10T14:34:19;2.13;;;1.75;;
69714;SDS011;56981;53.532;49.398;2024-01-10T14:36:45;4.78;;;2.50;;
69714;SDS011;56981;53.532;49.398;2024-01-10T14:39:12;1.02;;;0.90;;
69714;SDS011;56981;53.532;49.398;2024-01-10T14:41:38;2.95;;;1.15;;
69714;SDS011;56981;53.532;49.398;2024-01-10T14:44:09;2.03;;;1.38;;
69714;SDS011;56981;53.532;49.398;2024-01-10T14:46:36;2.30;;;1.08;;
69714;SDS011;56981;53.532;49.398;2024-01-10T14:49:02;3.42;;;1.92;;
69714;SDS011;56981;53.532;49.398;2024-01-10T14:51:28;3.15;;;1.27;;
69714;SDS011;56981;53.532;49.398;2024-01-10T14:53:54;3.67;;;2.00;;
69714;SDS011;56981;53.532;49.398;2024-01-10T14:56:20;4.47;;;1.90;;